Startpagina
METAR-TAF:

METAR-TAF

Vliegvelden :

Internationale luchthaven Milaan Linate

Milaan, Italië

breedte: 45-26N, lengte: 009-17E, hoogte: 107 m

Actueel weer

Dit bericht is 26 minuten geleden gemaakt, om 20:20 UTC
Wind 5 kt uit het westzuidwesten, variërend tussen het zuidwesten en het westen
Temperatuur 11°C
Vochtigheid 82%
Druk 1022 hPa
Zicht 10 km of meer
geen wolken onder 1500 m en geen cumulonimbus

METAR: LIML 232020Z 25005KT 220V280 CAVOK 11/08 Q1022 NOSIG

Tijdstip: 21:46 (20:46 UTC)

Verwachting

Dit bericht is 3 uur en het 46 minuten geleden gemaakt, om 17:00 UTC
Verwachting geldig van 23 om 18 UTC tot 24 om 18 UTC
Wind 5 kt uit variabele richting
Zicht: 8000 m
Wijzigt naar
van 23 om 22 UTC tot 24 om 01 UTC
Zicht: 3000 m
nevel
Tijdelijke
van 24 om 02 UTC tot 24 om 07 UTC
Zicht: 1200 m
mistbanken
Wijzigt naar
van 24 om 08 UTC tot 24 om 10 UTC
Zicht: 8000 m

TAF: LIML 231700Z 2318/2418 VRB05KT 8000 NSC BECMG 2322/2401 3000 BR TEMPO 2402/2407 1200 BCFG BECMG 2408/2410 8000

Waarnemingen en weersverwachtingen van meer dan 4000 vliegvelden (METAR en TAF).

De beschikbare stations zijn de gele en rode punten op de kaart.

Ga met uw muis naar het station om de naam te zien.

Klik dan om waarnemingen en weersverwachtingen te zien.

kaart wijzigen: klik op de groene knoppen met een zwart kruis om in te zoomen, op de groene knop met een streepje om uit te zoomen of op de groene pijlen voor aangrenzende kaarten.


METAR-TAF: